sensor_id;sensor_type;location;lat;lon;timestamp;temperature;humidity
32787;DHT22;19139;49.372;8.580;2022-12-07T00:02:08;17.40;93.00
32787;DHT22;19139;49.372;8.580;2022-12-07T00:04:34;17.40;93.00
32787;DHT22;19139;49.372;8.580;2022-12-07T00:07:01;17.40;93.20
32787;DHT22;19139;49.372;8.580;2022-12-07T00:09:28;17.40;93.00
32787;DHT22;19139;49.372;8.580;2022-12-07T00:11:55;17.30;93.00
32787;DHT22;19139;49.372;8.580;2022-12-07T00:14:22;17.40;93.00
32787;DHT22;19139;49.372;8.580;2022-12-07T00:16:50;17.40;93.00
32787;DHT22;19139;49.372;8.580;2022-12-07T00:19:18;17.40;93.00
32787;DHT22;19139;49.372;8.580;2022-12-07T00:21:44;17.30;93.00
32787;DHT22;19139;49.372;8.580;2022-12-07T00:24:11;17.40;93.00
32787;DHT22;19139;49.372;8.580;2022-12-07T00:26:40;17.40;93.00
32787;DHT22;19139;49.372;8.580;2022-12-07T00:29:17;17.40;93.00
32787;DHT22;19139;49.372;8.580;2022-12-07T00:31:43;17.40;93.00
32787;DHT22;19139;49.372;8.580;2022-12-07T00:34:16;17.40;93.00
32787;DHT22;19139;49.372;8.580;2022-12-07T00:36:44;17.40;93.00
32787;DHT22;19139;49.372;8.580;2022-12-07T00:39:11;17.40;93.00
32787;DHT22;19139;49.372;8.580;2022-12-07T00:41:38;17.40;93.00
32787;DHT22;19139;49.372;8.580;2022-12-07T00:44:04;17.40;93.00
32787;DHT22;19139;49.372;8.580;2022-12-07T00:46:31;17.40;93.00
32787;DHT22;19139;49.372;8.580;2022-12-07T00:48:58;17.40;93.00
32787;DHT22;19139;49.372;8.580;2022-12-07T00:51:25;17.40;92.90
32787;DHT22;19139;49.372;8.580;2022-12-07T00:53:52;17.40;93.00
32787;DHT22;19139;49.372;8.580;2022-12-07T00:56:29;17.40;93.00
32787;DHT22;19139;49.372;8.580;2022-12-07T00:58:58;17.40;93.00
32787;DHT22;19139;49.372;8.580;2022-12-07T01:01:26;17.40;93.00
32787;DHT22;19139;49.372;8.580;2022-12-07T01:03:53;17.30;92.90
32787;DHT22;19139;49.372;8.580;2022-12-07T01:06:21;17.40;93.00
32787;DHT22;19139;49.372;8.580;2022-12-07T01:08:49;17.40;93.00
32787;DHT22;19139;49.372;8.580;2022-12-07T01:11:19;17.40;92.90
32787;DHT22;19139;49.372;8.580;2022-12-07T01:13:46;17.40;93.30
32787;DHT22;19139;49.372;8.580;2022-12-07T01:16:14;17.40;92.90
32787;DHT22;19139;49.372;8.580;2022-12-07T01:18:42;17.30;92.90
32787;DHT22;19139;49.372;8.580;2022-12-07T01:21:31;17.30;92.90
32787;DHT22;19139;49.372;8.580;2022-12-07T01:24:03;17.40;92.90
32787;DHT22;19139;49.372;8.580;2022-12-07T01:26:30;17.40;92.90
32787;DHT22;19139;49.372;8.580;2022-12-07T01:28:57;17.40;92.90
32787;DHT22;19139;49.372;8.580;2022-12-07T01:31:26;17.30;92.90
32787;DHT22;19139;49.372;8.580;2022-12-07T01:33:55;17.40;92.90
32787;DHT22;19139;49.372;8.580;2022-12-07T01:36:24;17.40;92.90
32787;DHT22;19139;49.372;8.580;2022-12-07T01:38:55;17.40;92.90
32787;DHT22;19139;49.372;8.580;2022-12-07T01:41:25;17.40;93.20
32787;DHT22;19139;49.372;8.580;2022-12-07T01:44:15;17.40;92.90
32787;DHT22;19139;49.372;8.580;2022-12-07T01:46:54;17.40;92.90
32787;DHT22;19139;49.372;8.580;2022-12-07T01:49:26;17.40;92.90
32787;DHT22;19139;49.372;8.580;2022-12-07T01:52:01;17.40;92.90
32787;DHT22;19139;49.372;8.580;2022-12-07T01:54:30;17.30;92.90
32787;DHT22;19139;49.372;8.580;2022-12-07T01:56:58;17.40;92.90
32787;DHT22;19139;49.372;8.580;2022-12-07T01:59:25;17.30;92.90
32787;DHT22;19139;49.372;8.580;2022-12-07T02:01:54;17.40;92.90
32787;DHT22;19139;49.372;8.580;2022-12-07T02:04:22;17.40;92.90
32787;DHT22;19139;49.372;8.580;2022-12-07T02:06:50;17.30;92.90
32787;DHT22;19139;49.372;8.580;2022-12-07T02:09:17;17.40;92.90
32787;DHT22;19139;49.372;8.580;2022-12-07T02:11:44;17.30;92.90
32787;DHT22;19139;49.372;8.580;2022-12-07T02:14:10;17.30;92.80
32787;DHT22;19139;49.372;8.580;2022-12-07T02:25:02;17.40;92.80
32787;DHT22;19139;49.372;8.580;2022-12-07T02:28:04;17.40;92.90
32787;DHT22;19139;49.372;8.580;2022-12-07T02:30:35;17.40;92.80
32787;DHT22;19139;49.372;8.580;2022-12-07T02:33:19;17.40;92.80
32787;DHT22;19139;49.372;8.580;2022-12-07T02:38:36;17.40;92.80
32787;DHT22;19139;49.372;8.580;2022-12-07T02:41:13;17.30;92.80
32787;DHT22;19139;49.372;8.580;2022-12-07T02:43:46;17.40;92.80
32787;DHT22;19139;49.372;8.580;2022-12-07T02:46:17;17.40;92.80
32787;DHT22;19139;49.372;8.580;2022-12-07T02:48:47;17.40;92.80
32787;DHT22;19139;49.372;8.580;2022-12-07T02:51:17;17.40;92.80
32787;DHT22;19139;49.372;8.580;2022-12-07T02:53:44;17.40;92.80
32787;DHT22;19139;49.372;8.580;2022-12-07T03:11:01;17.30;92.80
32787;DHT22;19139;49.372;8.580;2022-12-07T03:13:44;17.40;92.80
32787;DHT22;19139;49.372;8.580;2022-12-07T03:19:06;17.30;92.80
32787;DHT22;19139;49.372;8.580;2022-12-07T03:21:40;17.30;92.80
32787;DHT22;19139;49.372;8.580;2022-12-07T03:24:20;17.40;92.80
32787;DHT22;19139;49.372;8.580;2022-12-07T03:26:52;17.40;92.80
32787;DHT22;19139;49.372;8.580;2022-12-07T03:29:30;17.40;92.80
32787;DHT22;19139;49.372;8.580;2022-12-07T03:32:18;17.30;92.80
32787;DHT22;19139;49.372;8.580;2022-12-07T03:34:57;17.30;92.70
32787;DHT22;19139;49.372;8.580;2022-12-07T03:37:36;17.40;92.80
32787;DHT22;19139;49.372;8.580;2022-12-07T03:40:33;17.40;92.80
32787;DHT22;19139;49.372;8.580;2022-12-07T03:43:01;17.30;92.70
32787;DHT22;19139;49.372;8.580;2022-12-07T03:45:40;17.40;92.80
32787;DHT22;19139;49.372;8.580;2022-12-07T03:48:22;17.40;92.80
32787;DHT22;19139;49.372;8.580;2022-12-07T03:51:11;17.40;92.80
32787;DHT22;19139;49.372;8.580;2022-12-07T03:53:53;17.30;92.70
32787;DHT22;19139;49.372;8.580;2022-12-07T03:56:21;17.30;92.70
32787;DHT22;19139;49.372;8.580;2022-12-07T03:58:49;17.40;92.70
32787;DHT22;19139;49.372;8.580;2022-12-07T04:01:17;17.40;92.80
32787;DHT22;19139;49.372;8.580;2022-12-07T04:03:44;17.40;92.70
32787;DHT22;19139;49.372;8.580;2022-12-07T04:06:11;17.40;92.70
32787;DHT22;19139;49.372;8.580;2022-12-07T04:08:37;17.40;92.70
32787;DHT22;19139;49.372;8.580;2022-12-07T04:11:04;17.40;92.70
32787;DHT22;19139;49.372;8.580;2022-12-07T04:13:31;17.40;92.70
32787;DHT22;19139;49.372;8.580;2022-12-07T04:16:17;17.40;92.70
32787;DHT22;19139;49.372;8.580;2022-12-07T04:18:44;17.30;92.70
32787;DHT22;19139;49.372;8.580;2022-12-07T04:21:10;17.40;92.70
32787;DHT22;19139;49.372;8.580;2022-12-07T04:23:37;17.40;92.70
32787;DHT22;19139;49.372;8.580;2022-12-07T04:26:04;17.40;92.70
32787;DHT22;19139;49.372;8.580;2022-12-07T04:28:30;17.30;92.70
32787;DHT22;19139;49.372;8.580;2022-12-07T04:30:57;17.40;92.70
32787;DHT22;19139;49.372;8.580;2022-12-07T04:33:24;17.40;92.70
32787;DHT22;19139;49.372;8.580;2022-12-07T04:35:50;17.30;92.70
32787;DHT22;19139;49.372;8.580;2022-12-07T04:38:17;17.40;92.70
32787;DHT22;19139;49.372;8.580;2022-12-07T04:40:43;17.30;92.70
32787;DHT22;19139;49.372;8.580;2022-12-07T04:43:10;17.30;92.70
32787;DHT22;19139;49.372;8.580;2022-12-07T04:45:36;17.40;92.70
32787;DHT22;19139;49.372;8.580;2022-12-07T04:48:03;17.30;92.70
32787;DHT22;19139;49.372;8.580;2022-12-07T04:50:30;17.40;92.70
32787;DHT22;19139;49.372;8.580;2022-12-07T04:52:56;17.40;92.70
32787;DHT22;19139;49.372;8.580;2022-12-07T04:55:23;17.30;92.70
32787;DHT22;19139;49.372;8.580;2022-12-07T04:57:49;17.40;92.70
32787;DHT22;19139;49.372;8.580;2022-12-07T05:00:16;17.30;92.70
32787;DHT22;19139;49.372;8.580;2022-12-07T05:02:42;17.40;92.70
32787;DHT22;19139;49.372;8.580;2022-12-07T05:05:09;17.30;92.70
32787;DHT22;19139;49.372;8.580;2022-12-07T05:07:36;17.40;92.70
32787;DHT22;19139;49.372;8.580;2022-12-07T05:10:02;17.30;92.70
32787;DHT22;19139;49.372;8.580;2022-12-07T05:12:30;17.30;92.70
32787;DHT22;19139;49.372;8.580;2022-12-07T05:14:56;17.30;92.70
32787;DHT22;19139;49.372;8.580;2022-12-07T05:17:23;17.30;92.60
32787;DHT22;19139;49.372;8.580;2022-12-07T05:19:49;17.30;92.70
32787;DHT22;19139;49.372;8.580;2022-12-07T05:22:16;17.40;92.70
32787;DHT22;19139;49.372;8.580;2022-12-07T05:24:43;17.40;92.70
32787;DHT22;19139;49.372;8.580;2022-12-07T05:27:09;17.30;92.60
32787;DHT22;19139;49.372;8.580;2022-12-07T05:29:36;17.30;92.70
32787;DHT22;19139;49.372;8.580;2022-12-07T05:32:02;17.30;92.60
32787;DHT22;19139;49.372;8.580;2022-12-07T05:34:29;17.40;92.70
32787;DHT22;19139;49.372;8.580;2022-12-07T05:36:56;17.30;92.60
32787;DHT22;19139;49.372;8.580;2022-12-07T05:39:22;17.30;92.60
32787;DHT22;19139;49.372;8.580;2022-12-07T05:41:49;17.30;92.60
32787;DHT22;19139;49.372;8.580;2022-12-07T05:44:34;17.30;92.60
32787;DHT22;19139;49.372;8.580;2022-12-07T05:47:01;17.30;92.60
32787;DHT22;19139;49.372;8.580;2022-12-07T05:49:27;17.30;92.60
32787;DHT22;19139;49.372;8.580;2022-12-07T05:51:54;17.40;92.70
32787;DHT22;19139;49.372;8.580;2022-12-07T05:54:20;17.40;92.70
32787;DHT22;19139;49.372;8.580;2022-12-07T05:56:47;17.30;92.60
32787;DHT22;19139;49.372;8.580;2022-12-07T05:59:14;17.30;92.60
32787;DHT22;19139;49.372;8.580;2022-12-07T06:01:53;17.40;92.60
32787;DHT22;19139;49.372;8.580;2022-12-07T06:04:22;17.30;92.60
32787;DHT22;19139;49.372;8.580;2022-12-07T06:06:48;17.40;92.60
32787;DHT22;19139;49.372;8.580;2022-12-07T06:09:15;17.30;92.60
32787;DHT22;19139;49.372;8.580;2022-12-07T06:11:42;17.40;92.60
32787;DHT22;19139;49.372;8.580;2022-12-07T06:14:27;17.40;92.60
32787;DHT22;19139;49.372;8.580;2022-12-07T06:16:53;17.40;92.60
32787;DHT22;19139;49.372;8.580;2022-12-07T06:19:20;17.30;92.60
32787;DHT22;19139;49.372;8.580;2022-12-07T06:21:47;17.30;92.60
32787;DHT22;19139;49.372;8.580;2022-12-07T06:24:15;17.30;92.60
32787;DHT22;19139;49.372;8.580;2022-12-07T06:26:42;17.40;92.60
32787;DHT22;19139;49.372;8.580;2022-12-07T06:29:10;17.40;92.60
32787;DHT22;19139;49.372;8.580;2022-12-07T06:31:37;17.30;92.60
32787;DHT22;19139;49.372;8.580;2022-12-07T06:34:09;17.40;92.60
32787;DHT22;19139;49.372;8.580;2022-12-07T06:36:37;17.30;92.60
32787;DHT22;19139;49.372;8.580;2022-12-07T06:39:04;17.40;92.60
32787;DHT22;19139;49.372;8.580;2022-12-07T06:41:31;17.30;92.60
32787;DHT22;19139;49.372;8.580;2022-12-07T06:43:58;17.30;92.60
32787;DHT22;19139;49.372;8.580;2022-12-07T06:46:25;17.30;92.60
32787;DHT22;19139;49.372;8.580;2022-12-07T06:48:52;17.40;92.60
32787;DHT22;19139;49.372;8.580;2022-12-07T06:51:18;17.30;92.60
32787;DHT22;19139;49.372;8.580;2022-12-07T06:53:45;17.30;92.60
32787;DHT22;19139;49.372;8.580;2022-12-07T06:56:11;17.30;92.60
32787;DHT22;19139;49.372;8.580;2022-12-07T06:58:39;17.30;92.60
32787;DHT22;19139;49.372;8.580;2022-12-07T07:01:13;17.20;91.20
32787;DHT22;19139;49.372;8.580;2022-12-07T07:03:40;16.40;90.00
32787;DHT22;19139;49.372;8.580;2022-12-07T07:06:08;15.70;89.10
32787;DHT22;19139;49.372;8.580;2022-12-07T07:08:35;15.50;89.80
32787;DHT22;19139;49.372;8.580;2022-12-07T07:11:03;15.90;90.50
32787;DHT22;19139;49.372;8.580;2022-12-07T07:13:30;16.20;90.80
32787;DHT22;19139;49.372;8.580;2022-12-07T07:15:57;16.40;91.00
32787;DHT22;19139;49.372;8.580;2022-12-07T07:18:24;16.60;91.10
32787;DHT22;19139;49.372;8.580;2022-12-07T07:20:51;16.70;91.30
32787;DHT22;19139;49.372;8.580;2022-12-07T07:23:18;16.80;91.40
32787;DHT22;19139;49.372;8.580;2022-12-07T07:25:45;16.90;91.60
32787;DHT22;19139;49.372;8.580;2022-12-07T07:28:12;16.90;91.60
32787;DHT22;19139;49.372;8.580;2022-12-07T07:30:39;17.00;91.80
32787;DHT22;19139;49.372;8.580;2022-12-07T07:33:06;17.10;91.90
32787;DHT22;19139;49.372;8.580;2022-12-07T07:35:34;17.10;92.00
32787;DHT22;19139;49.372;8.580;2022-12-07T07:38:01;17.10;92.10
32787;DHT22;19139;49.372;8.580;2022-12-07T07:40:28;17.10;92.20
32787;DHT22;19139;49.372;8.580;2022-12-07T07:42:56;17.20;92.30
32787;DHT22;19139;49.372;8.580;2022-12-07T07:45:24;17.10;92.40
32787;DHT22;19139;49.372;8.580;2022-12-07T07:47:51;17.20;92.50
32787;DHT22;19139;49.372;8.580;2022-12-07T07:50:18;17.20;92.60
32787;DHT22;19139;49.372;8.580;2022-12-07T07:52:45;17.20;92.60
32787;DHT22;19139;49.372;8.580;2022-12-07T07:55:12;17.20;92.70
32787;DHT22;19139;49.372;8.580;2022-12-07T07:57:39;17.30;92.80
32787;DHT22;19139;49.372;8.580;2022-12-07T08:00:10;17.30;92.80
32787;DHT22;19139;49.372;8.580;2022-12-07T08:02:37;17.30;92.90
32787;DHT22;19139;49.372;8.580;2022-12-07T08:05:03;17.30;93.00
32787;DHT22;19139;49.372;8.580;2022-12-07T08:07:30;17.40;93.30
32787;DHT22;19139;49.372;8.580;2022-12-07T08:09:57;17.40;93.00
32787;DHT22;19139;49.372;8.580;2022-12-07T08:12:24;17.40;93.10
32787;DHT22;19139;49.372;8.580;2022-12-07T08:14:50;17.40;93.10
32787;DHT22;19139;49.372;8.580;2022-12-07T08:17:17;17.40;93.20
32787;DHT22;19139;49.372;8.580;2022-12-07T08:19:43;17.40;93.20
32787;DHT22;19139;49.372;8.580;2022-12-07T08:22:10;17.40;93.20
32787;DHT22;19139;49.372;8.580;2022-12-07T08:24:37;17.40;93.30
32787;DHT22;19139;49.372;8.580;2022-12-07T08:27:03;17.40;93.30
32787;DHT22;19139;49.372;8.580;2022-12-07T08:29:30;17.40;93.30
32787;DHT22;19139;49.372;8.580;2022-12-07T08:31:57;17.50;93.40
32787;DHT22;19139;49.372;8.580;2022-12-07T08:34:23;17.40;93.40
32787;DHT22;19139;49.372;8.580;2022-12-07T08:36:50;17.50;93.50
32787;DHT22;19139;49.372;8.580;2022-12-07T08:39:16;17.40;93.50
32787;DHT22;19139;49.372;8.580;2022-12-07T08:41:58;17.50;93.60
32787;DHT22;19139;49.372;8.580;2022-12-07T08:44:25;17.50;93.60
32787;DHT22;19139;49.372;8.580;2022-12-07T08:46:56;17.50;93.60
32787;DHT22;19139;49.372;8.580;2022-12-07T08:49:41;17.50;93.60
32787;DHT22;19139;49.372;8.580;2022-12-07T08:52:09;17.60;93.70
32787;DHT22;19139;49.372;8.580;2022-12-07T08:54:37;17.50;93.60
32787;DHT22;19139;49.372;8.580;2022-12-07T08:57:05;17.60;93.70
32787;DHT22;19139;49.372;8.580;2022-12-07T08:59:34;17.60;93.70
32787;DHT22;19139;49.372;8.580;2022-12-07T09:02:04;17.60;93.80
32787;DHT22;19139;49.372;8.580;2022-12-07T09:04:31;17.60;93.80
32787;DHT22;19139;49.372;8.580;2022-12-07T09:06:58;17.60;93.80
32787;DHT22;19139;49.372;8.580;2022-12-07T09:09:25;17.60;93.80
32787;DHT22;19139;49.372;8.580;2022-12-07T09:11:51;17.60;93.80
32787;DHT22;19139;49.372;8.580;2022-12-07T09:14:18;17.60;93.90
32787;DHT22;19139;49.372;8.580;2022-12-07T09:16:45;17.60;93.90
32787;DHT22;19139;49.372;8.580;2022-12-07T09:19:11;17.60;93.90
32787;DHT22;19139;49.372;8.580;2022-12-07T09:21:38;17.60;93.90
32787;DHT22;19139;49.372;8.580;2022-12-07T09:24:05;17.70;94.00
32787;DHT22;19139;49.372;8.580;2022-12-07T09:26:32;17.70;94.00
32787;DHT22;19139;49.372;8.580;2022-12-07T09:28:58;17.70;94.00
32787;DHT22;19139;49.372;8.580;2022-12-07T09:31:25;17.70;94.00
32787;DHT22;19139;49.372;8.580;2022-12-07T09:33:57;17.70;94.00
32787;DHT22;19139;49.372;8.580;2022-12-07T09:36:26;17.70;94.00
32787;DHT22;19139;49.372;8.580;2022-12-07T09:38:53;17.70;94.00
32787;DHT22;19139;49.372;8.580;2022-12-07T09:41:21;17.70;94.00
32787;DHT22;19139;49.372;8.580;2022-12-07T09:43:48;17.70;94.00
32787;DHT22;19139;49.372;8.580;2022-12-07T09:46:16;17.70;94.10
32787;DHT22;19139;49.372;8.580;2022-12-07T09:48:45;17.70;94.00
32787;DHT22;19139;49.372;8.580;2022-12-07T09:51:19;17.80;94.10
32787;DHT22;19139;49.372;8.580;2022-12-07T09:53:51;17.70;94.10
32787;DHT22;19139;49.372;8.580;2022-12-07T09:56:19;17.80;94.10
32787;DHT22;19139;49.372;8.580;2022-12-07T09:58:46;17.70;94.00
32787;DHT22;19139;49.372;8.580;2022-12-07T10:01:18;17.70;93.90
32787;DHT22;19139;49.372;8.580;2022-12-07T10:03:53;17.80;93.90
32787;DHT22;19139;49.372;8.580;2022-12-07T10:06:21;17.70;93.80
32787;DHT22;19139;49.372;8.580;2022-12-07T10:08:48;17.80;93.80
32787;DHT22;19139;49.372;8.580;2022-12-07T10:11:14;17.80;93.80
32787;DHT22;19139;49.372;8.580;2022-12-07T10:13:45;17.70;93.70
32787;DHT22;19139;49.372;8.580;2022-12-07T10:16:38;17.70;93.70
32787;DHT22;19139;49.372;8.580;2022-12-07T10:22:03;17.70;93.80
32787;DHT22;19139;49.372;8.580;2022-12-07T10:24:30;17.80;93.80
32787;DHT22;19139;49.372;8.580;2022-12-07T10:26:58;17.80;93.90
32787;DHT22;19139;49.372;8.580;2022-12-07T10:29:37;17.80;93.90
32787;DHT22;19139;49.372;8.580;2022-12-07T10:34:40;17.80;94.00
32787;DHT22;19139;49.372;8.580;2022-12-07T10:42:23;17.80;94.10
32787;DHT22;19139;49.372;8.580;2022-12-07T10:45:24;17.80;94.10
32787;DHT22;19139;49.372;8.580;2022-12-07T10:51:06;17.90;94.20
32787;DHT22;19139;49.372;8.580;2022-12-07T10:53:56;17.90;94.20
32787;DHT22;19139;49.372;8.580;2022-12-07T11:13:14;17.90;94.40
32787;DHT22;19139;49.372;8.580;2022-12-07T11:18:29;18.00;94.20
32787;DHT22;19139;49.372;8.580;2022-12-07T11:23:39;18.00;94.00
32787;DHT22;19139;49.372;8.580;2022-12-07T11:26:21;18.00;94.00
32787;DHT22;19139;49.372;8.580;2022-12-07T11:34:36;18.10;93.80
32787;DHT22;19139;49.372;8.580;2022-12-07T11:37:12;18.10;93.80
32787;DHT22;19139;49.372;8.580;2022-12-07T11:39:47;18.10;93.80
32787;DHT22;19139;49.372;8.580;2022-12-07T11:42:33;18.10;93.70
32787;DHT22;19139;49.372;8.580;2022-12-07T11:45:16;18.10;93.80
32787;DHT22;19139;49.372;8.580;2022-12-07T11:50:40;18.10;93.70
32787;DHT22;19139;49.372;8.580;2022-12-07T11:56:12;18.10;93.80
32787;DHT22;19139;49.372;8.580;2022-12-07T11:59:06;18.00;93.70
32787;DHT22;19139;49.372;8.580;2022-12-07T12:01:56;18.00;93.70
32787;DHT22;19139;49.372;8.580;2022-12-07T12:07:23;18.00;93.70
32787;DHT22;19139;49.372;8.580;2022-12-07T12:10:21;18.00;93.70
32787;DHT22;19139;49.372;8.580;2022-12-07T12:15:57;18.10;93.80
32787;DHT22;19139;49.372;8.580;2022-12-07T12:18:46;18.00;93.70
32787;DHT22;19139;49.372;8.580;2022-12-07T12:21:18;18.10;93.60
32787;DHT22;19139;49.372;8.580;2022-12-07T12:23:51;18.10;93.80
32787;DHT22;19139;49.372;8.580;2022-12-07T12:26:23;18.10;93.90
32787;DHT22;19139;49.372;8.580;2022-12-07T12:29:06;18.10;94.00
32787;DHT22;19139;49.372;8.580;2022-12-07T12:31:48;18.10;94.00
32787;DHT22;19139;49.372;8.580;2022-12-07T12:34:38;18.10;94.10
32787;DHT22;19139;49.372;8.580;2022-12-07T12:37:39;18.10;94.10
32787;DHT22;19139;49.372;8.580;2022-12-07T12:40:41;18.20;94.10
32787;DHT22;19139;49.372;8.580;2022-12-07T12:43:45;18.20;94.20
32787;DHT22;19139;49.372;8.580;2022-12-07T12:46:36;18.20;94.20
32787;DHT22;19139;49.372;8.580;2022-12-07T12:51:47;18.20;94.20
32787;DHT22;19139;49.372;8.580;2022-12-07T12:57:13;18.20;94.00
32787;DHT22;19139;49.372;8.580;2022-12-07T13:00:01;18.20;94.00
32787;DHT22;19139;49.372;8.580;2022-12-07T13:15:39;18.10;93.80
32787;DHT22;19139;49.372;8.580;2022-12-07T13:28:47;18.10;93.70
32787;DHT22;19139;49.372;8.580;2022-12-07T13:31:28;18.10;93.70
32787;DHT22;19139;49.372;8.580;2022-12-07T13:33:56;18.10;93.70
32787;DHT22;19139;49.372;8.580;2022-12-07T13:36:32;18.10;93.70
32787;DHT22;19139;49.372;8.580;2022-12-07T13:41:44;18.00;93.70
32787;DHT22;19139;49.372;8.580;2022-12-07T13:44:12;18.00;93.60
32787;DHT22;19139;49.372;8.580;2022-12-07T13:49:27;18.00;93.60
32787;DHT22;19139;49.372;8.580;2022-12-07T13:52:03;18.00;93.70
32787;DHT22;19139;49.372;8.580;2022-12-07T13:54:33;18.00;93.60
32787;DHT22;19139;49.372;8.580;2022-12-07T13:57:00;18.00;93.60
32787;DHT22;19139;49.372;8.580;2022-12-07T13:59:28;18.00;93.60
32787;DHT22;19139;49.372;8.580;2022-12-07T14:01:57;18.00;93.60
32787;DHT22;19139;49.372;8.580;2022-12-07T14:04:33;18.00;93.60
32787;DHT22;19139;49.372;8.580;2022-12-07T14:07:01;18.00;93.60
32787;DHT22;19139;49.372;8.580;2022-12-07T14:12:23;18.00;93.60
32787;DHT22;19139;49.372;8.580;2022-12-07T14:14:50;17.90;93.60
32787;DHT22;19139;49.372;8.580;2022-12-07T14:17:19;18.00;93.90
32787;DHT22;19139;49.372;8.580;2022-12-07T14:19:59;17.90;93.50
32787;DHT22;19139;49.372;8.580;2022-12-07T14:22:29;18.00;93.50
32787;DHT22;19139;49.372;8.580;2022-12-07T14:25:01;17.90;93.50
32787;DHT22;19139;49.372;8.580;2022-12-07T14:27:32;18.00;93.50
32787;DHT22;19139;49.372;8.580;2022-12-07T14:30:04;18.00;93.50
32787;DHT22;19139;49.372;8.580;2022-12-07T14:32:34;18.00;93.50
32787;DHT22;19139;49.372;8.580;2022-12-07T14:35:09;18.00;93.50
32787;DHT22;19139;49.372;8.580;2022-12-07T14:37:37;17.90;93.40
32787;DHT22;19139;49.372;8.580;2022-12-07T14:40:05;18.00;93.40
32787;DHT22;19139;49.372;8.580;2022-12-07T14:42:33;18.00;93.40
32787;DHT22;19139;49.372;8.580;2022-12-07T14:45:00;17.90;93.40
32787;DHT22;19139;49.372;8.580;2022-12-07T14:47:28;17.90;93.40
32787;DHT22;19139;49.372;8.580;2022-12-07T14:50:16;17.90;93.40
32787;DHT22;19139;49.372;8.580;2022-12-07T14:52:48;18.00;93.40
32787;DHT22;19139;49.372;8.580;2022-12-07T14:55:36;17.90;93.40
32787;DHT22;19139;49.372;8.580;2022-12-07T14:58:03;17.90;93.40
32787;DHT22;19139;49.372;8.580;2022-12-07T15:00:29;17.90;93.40
32787;DHT22;19139;49.372;8.580;2022-12-07T15:02:56;17.90;93.40
32787;DHT22;19139;49.372;8.580;2022-12-07T15:05:23;17.90;93.40
32787;DHT22;19139;49.372;8.580;2022-12-07T15:07:51;17.90;93.40
32787;DHT22;19139;49.372;8.580;2022-12-07T15:10:25;17.90;93.40
32787;DHT22;19139;49.372;8.580;2022-12-07T15:13:02;17.90;93.40
32787;DHT22;19139;49.372;8.580;2022-12-07T15:15:49;17.90;93.40
32787;DHT22;19139;49.372;8.580;2022-12-07T15:18:17;17.80;93.30
32787;DHT22;19139;49.372;8.580;2022-12-07T15:20:44;17.90;93.40
32787;DHT22;19139;49.372;8.580;2022-12-07T15:23:11;17.90;93.40
32787;DHT22;19139;49.372;8.580;2022-12-07T15:25:44;17.90;93.30
32787;DHT22;19139;49.372;8.580;2022-12-07T15:28:12;17.90;93.30
32787;DHT22;19139;49.372;8.580;2022-12-07T15:30:41;17.90;93.50
32787;DHT22;19139;49.372;8.580;2022-12-07T15:33:10;17.90;93.50
32787;DHT22;19139;49.372;8.580;2022-12-07T15:35:41;17.90;93.80
32787;DHT22;19139;49.372;8.580;2022-12-07T15:38:07;18.00;94.00
32787;DHT22;19139;49.372;8.580;2022-12-07T15:40:34;18.00;94.20
32787;DHT22;19139;49.372;8.580;2022-12-07T15:43:02;18.00;94.20
32787;DHT22;19139;49.372;8.580;2022-12-07T15:45:29;18.00;94.20
32787;DHT22;19139;49.372;8.580;2022-12-07T15:47:56;18.00;94.30
32787;DHT22;19139;49.372;8.580;2022-12-07T15:50:43;18.00;94.30
32787;DHT22;19139;49.372;8.580;2022-12-07T15:53:09;18.00;94.30
32787;DHT22;19139;49.372;8.580;2022-12-07T15:55:38;18.00;94.30
32787;DHT22;19139;49.372;8.580;2022-12-07T15:58:05;18.00;94.40
32787;DHT22;19139;49.372;8.580;2022-12-07T16:00:32;18.10;94.40
32787;DHT22;19139;49.372;8.580;2022-12-07T16:02:59;18.10;94.40
32787;DHT22;19139;49.372;8.580;2022-12-07T16:05:26;18.10;94.50
32787;DHT22;19139;49.372;8.580;2022-12-07T16:07:52;18.10;94.50
32787;DHT22;19139;49.372;8.580;2022-12-07T16:10:19;18.10;94.50
32787;DHT22;19139;49.372;8.580;2022-12-07T16:12:46;18.10;94.60
32787;DHT22;19139;49.372;8.580;2022-12-07T16:15:12;18.10;94.60
32787;DHT22;19139;49.372;8.580;2022-12-07T16:17:39;18.10;94.70
32787;DHT22;19139;49.372;8.580;2022-12-07T16:20:06;18.10;94.60
32787;DHT22;19139;49.372;8.580;2022-12-07T16:22:34;18.10;94.70
32787;DHT22;19139;49.372;8.580;2022-12-07T16:25:01;18.10;94.70
32787;DHT22;19139;49.372;8.580;2022-12-07T16:27:28;18.10;94.80
32787;DHT22;19139;49.372;8.580;2022-12-07T16:29:55;18.10;94.80
32787;DHT22;19139;49.372;8.580;2022-12-07T16:32:22;18.10;94.90
32787;DHT22;19139;49.372;8.580;2022-12-07T16:34:48;18.10;94.90
32787;DHT22;19139;49.372;8.580;2022-12-07T16:37:15;18.10;95.00
32787;DHT22;19139;49.372;8.580;2022-12-07T16:39:42;18.10;95.00
32787;DHT22;19139;49.372;8.580;2022-12-07T16:42:08;18.10;95.00
32787;DHT22;19139;49.372;8.580;2022-12-07T16:44:35;18.10;95.00
32787;DHT22;19139;49.372;8.580;2022-12-07T16:47:02;18.20;95.10
32787;DHT22;19139;49.372;8.580;2022-12-07T16:49:28;18.10;95.10
32787;DHT22;19139;49.372;8.580;2022-12-07T16:51:55;18.10;95.10
32787;DHT22;19139;49.372;8.580;2022-12-07T16:54:42;18.10;95.10
32787;DHT22;19139;49.372;8.580;2022-12-07T16:57:09;18.10;95.10
32787;DHT22;19139;49.372;8.580;2022-12-07T16:59:36;18.20;95.10
32787;DHT22;19139;49.372;8.580;2022-12-07T17:02:02;18.20;95.20
32787;DHT22;19139;49.372;8.580;2022-12-07T17:04:30;18.20;95.20
32787;DHT22;19139;49.372;8.580;2022-12-07T17:06:56;18.20;95.20
32787;DHT22;19139;49.372;8.580;2022-12-07T17:09:24;18.20;95.20
32787;DHT22;19139;49.372;8.580;2022-12-07T17:11:51;18.20;95.30
32787;DHT22;19139;49.372;8.580;2022-12-07T17:14:18;18.20;95.30
32787;DHT22;19139;49.372;8.580;2022-12-07T17:17:04;18.20;95.30
32787;DHT22;19139;49.372;8.580;2022-12-07T17:19:31;18.20;95.40
32787;DHT22;19139;49.372;8.580;2022-12-07T17:21:58;18.20;95.40
32787;DHT22;19139;49.372;8.580;2022-12-07T17:24:24;18.20;95.40
32787;DHT22;19139;49.372;8.580;2022-12-07T17:26:51;18.20;95.50
32787;DHT22;19139;49.372;8.580;2022-12-07T17:29:18;18.20;95.50
32787;DHT22;19139;49.372;8.580;2022-12-07T17:31:46;18.20;95.50
32787;DHT22;19139;49.372;8.580;2022-12-07T17:34:17;18.20;95.50
32787;DHT22;19139;49.372;8.580;2022-12-07T17:36:44;18.20;95.50
32787;DHT22;19139;49.372;8.580;2022-12-07T17:39:15;18.20;95.50
32787;DHT22;19139;49.372;8.580;2022-12-07T17:41:42;18.30;95.60
32787;DHT22;19139;49.372;8.580;2022-12-07T17:44:27;18.30;95.50
32787;DHT22;19139;49.372;8.580;2022-12-07T17:46:55;18.20;95.30
32787;DHT22;19139;49.372;8.580;2022-12-07T17:49:25;18.20;95.30
32787;DHT22;19139;49.372;8.580;2022-12-07T17:51:52;18.20;95.20